sensor_id;sensor_type;location;lat;lon;timestamp;pressure;altitude;pressure_sealevel;temperature;humidity
58473;BME280;44775;51.564;5.460;2023-01-31T00:00:55;102200.41;;;1.77;100.00
58473;BME280;44775;51.564;5.460;2023-01-31T00:03:21;102210.72;;;1.82;100.00
58473;BME280;44775;51.564;5.460;2023-01-31T00:05:46;102200.09;;;1.83;100.00
58473;BME280;44775;51.564;5.460;2023-01-31T00:08:12;102205.44;;;1.82;100.00
58473;BME280;44775;51.564;5.460;2023-01-31T00:10:39;102209.09;;;1.79;100.00
58473;BME280;44775;51.564;5.460;2023-01-31T00:13:05;102207.78;;;1.71;100.00
58473;BME280;44775;51.564;5.460;2023-01-31T00:15:30;102215.84;;;1.68;100.00
58473;BME280;44775;51.564;5.460;2023-01-31T00:17:56;102216.69;;;1.68;100.00
58473;BME280;44775;51.564;5.460;2023-01-31T00:20:21;102224.03;;;1.61;100.00
58473;BME280;44775;51.564;5.460;2023-01-31T00:22:47;102228.00;;;1.53;100.00
58473;BME280;44775;51.564;5.460;2023-01-31T00:25:12;102226.38;;;1.50;100.00
58473;BME280;44775;51.564;5.460;2023-01-31T00:27:38;102231.09;;;1.44;100.00
58473;BME280;44775;51.564;5.460;2023-01-31T00:30:03;102229.47;;;1.41;100.00
58473;BME280;44775;51.564;5.460;2023-01-31T00:32:29;102233.03;;;1.40;100.00
58473;BME280;44775;51.564;5.460;2023-01-31T00:34:54;102225.41;;;1.34;100.00
58473;BME280;44775;51.564;5.460;2023-01-31T00:37:20;102222.19;;;1.29;100.00
58473;BME280;44775;51.564;5.460;2023-01-31T00:39:46;102218.91;;;1.24;100.00
58473;BME280;44775;51.564;5.460;2023-01-31T00:42:12;102210.53;;;1.15;100.00
58473;BME280;44775;51.564;5.460;2023-01-31T00:44:37;102215.00;;;1.13;100.00
58473;BME280;44775;51.564;5.460;2023-01-31T00:47:02;102211.66;;;1.10;100.00
58473;BME280;44775;51.564;5.460;2023-01-31T00:49:28;102210.72;;;1.11;100.00
58473;BME280;44775;51.564;5.460;2023-01-31T00:51:53;102197.81;;;1.06;100.00
58473;BME280;44775;51.564;5.460;2023-01-31T00:54:19;102195.41;;;1.02;100.00
58473;BME280;44775;51.564;5.460;2023-01-31T00:56:44;102209.03;;;1.10;100.00
58473;BME280;44775;51.564;5.460;2023-01-31T00:59:10;102205.47;;;1.11;100.00
58473;BME280;44775;51.564;5.460;2023-01-31T01:01:36;102194.22;;;1.07;100.00
58473;BME280;44775;51.564;5.460;2023-01-31T01:04:02;102198.41;;;1.11;100.00
58473;BME280;44775;51.564;5.460;2023-01-31T01:06:28;102198.28;;;1.14;100.00
58473;BME280;44775;51.564;5.460;2023-01-31T01:08:54;102199.84;;;1.18;100.00
58473;BME280;44775;51.564;5.460;2023-01-31T01:11:23;102191.00;;;1.20;100.00
58473;BME280;44775;51.564;5.460;2023-01-31T01:13:49;102183.13;;;1.20;100.00
58473;BME280;44775;51.564;5.460;2023-01-31T01:16:17;102184.53;;;1.27;100.00
58473;BME280;44775;51.564;5.460;2023-01-31T01:18:43;102183.56;;;1.28;100.00
58473;BME280;44775;51.564;5.460;2023-01-31T01:21:13;102180.75;;;1.32;100.00
58473;BME280;44775;51.564;5.460;2023-01-31T01:23:40;102169.19;;;1.35;100.00
58473;BME280;44775;51.564;5.460;2023-01-31T01:26:12;102165.78;;;1.33;100.00
58473;BME280;44775;51.564;5.460;2023-01-31T01:28:38;102173.69;;;1.33;100.00
58473;BME280;44775;51.564;5.460;2023-01-31T01:31:05;102163.22;;;1.31;100.00
58473;BME280;44775;51.564;5.460;2023-01-31T01:33:30;102165.16;;;1.28;100.00
58473;BME280;44775;51.564;5.460;2023-01-31T01:36:03;102165.84;;;1.31;100.00
58473;BME280;44775;51.564;5.460;2023-01-31T01:38:29;102170.25;;;1.31;100.00
58473;BME280;44775;51.564;5.460;2023-01-31T01:40:54;102158.03;;;1.30;100.00
58473;BME280;44775;51.564;5.460;2023-01-31T01:43:20;102160.13;;;1.23;100.00
58473;BME280;44775;51.564;5.460;2023-01-31T01:45:46;102160.72;;;1.28;100.00
58473;BME280;44775;51.564;5.460;2023-01-31T01:48:15;102158.81;;;1.32;100.00
58473;BME280;44775;51.564;5.460;2023-01-31T01:50:46;102153.75;;;1.27;100.00
58473;BME280;44775;51.564;5.460;2023-01-31T01:53:16;102154.75;;;1.25;100.00
58473;BME280;44775;51.564;5.460;2023-01-31T01:55:46;102150.44;;;1.24;100.00
58473;BME280;44775;51.564;5.460;2023-01-31T01:58:18;102150.59;;;1.21;100.00
58473;BME280;44775;51.564;5.460;2023-01-31T02:00:47;102145.47;;;1.17;100.00
58473;BME280;44775;51.564;5.460;2023-01-31T02:03:15;102144.84;;;1.12;100.00
58473;BME280;44775;51.564;5.460;2023-01-31T02:05:44;102148.09;;;1.17;100.00
58473;BME280;44775;51.564;5.460;2023-01-31T02:08:11;102149.81;;;1.18;100.00
58473;BME280;44775;51.564;5.460;2023-01-31T02:10:48;102164.44;;;1.24;100.00
58473;BME280;44775;51.564;5.460;2023-01-31T02:13:16;102168.16;;;1.20;100.00
58473;BME280;44775;51.564;5.460;2023-01-31T02:15:43;102156.78;;;1.20;100.00
58473;BME280;44775;51.564;5.460;2023-01-31T02:18:08;102161.97;;;1.21;100.00
58473;BME280;44775;51.564;5.460;2023-01-31T02:34:37;102172.91;;;1.31;100.00
58473;BME280;44775;51.564;5.460;2023-01-31T02:37:44;102173.00;;;1.29;100.00
58473;BME280;44775;51.564;5.460;2023-01-31T02:40:15;102164.94;;;1.32;100.00
58473;BME280;44775;51.564;5.460;2023-01-31T02:50:26;102161.75;;;1.43;100.00
58473;BME280;44775;51.564;5.460;2023-01-31T02:55:42;102163.41;;;1.46;100.00
58473;BME280;44775;51.564;5.460;2023-01-31T02:58:30;102160.91;;;1.42;100.00
58473;BME280;44775;51.564;5.460;2023-01-31T03:00:59;102161.75;;;1.43;100.00
58473;BME280;44775;51.564;5.460;2023-01-31T03:03:31;102162.34;;;1.48;100.00
58473;BME280;44775;51.564;5.460;2023-01-31T03:08:50;102154.72;;;1.44;100.00
58473;BME280;44775;51.564;5.460;2023-01-31T03:11:18;102142.47;;;1.42;100.00
58473;BME280;44775;51.564;5.460;2023-01-31T03:13:58;102154.56;;;1.47;100.00
58473;BME280;44775;51.564;5.460;2023-01-31T03:16:33;102153.84;;;1.43;100.00
58473;BME280;44775;51.564;5.460;2023-01-31T03:19:26;102148.75;;;1.40;100.00
58473;BME280;44775;51.564;5.460;2023-01-31T03:21:59;102148.59;;;1.43;100.00
58473;BME280;44775;51.564;5.460;2023-01-31T03:24:27;102147.66;;;1.44;100.00
58473;BME280;44775;51.564;5.460;2023-01-31T03:26:56;102145.09;;;1.42;100.00
58473;BME280;44775;51.564;5.460;2023-01-31T03:29:23;102146.56;;;1.48;100.00
58473;BME280;44775;51.564;5.460;2023-01-31T03:31:59;102136.03;;;1.48;100.00
58473;BME280;44775;51.564;5.460;2023-01-31T03:34:25;102134.31;;;1.47;100.00
58473;BME280;44775;51.564;5.460;2023-01-31T03:36:57;102141.22;;;1.50;100.00
58473;BME280;44775;51.564;5.460;2023-01-31T03:39:39;102143.00;;;1.49;100.00
58473;BME280;44775;51.564;5.460;2023-01-31T03:42:13;102128.13;;;1.48;100.00
58473;BME280;44775;51.564;5.460;2023-01-31T03:45:03;102130.59;;;1.51;100.00
58473;BME280;44775;51.564;5.460;2023-01-31T03:47:32;102132.47;;;1.49;100.00
58473;BME280;44775;51.564;5.460;2023-01-31T03:50:04;102124.63;;;1.48;100.00
58473;BME280;44775;51.564;5.460;2023-01-31T03:52:35;102114.94;;;1.48;100.00
58473;BME280;44775;51.564;5.460;2023-01-31T03:55:09;102114.09;;;1.48;100.00
58473;BME280;44775;51.564;5.460;2023-01-31T03:57:38;102118.38;;;1.50;100.00
58473;BME280;44775;51.564;5.460;2023-01-31T04:00:10;102107.66;;;1.53;100.00
58473;BME280;44775;51.564;5.460;2023-01-31T04:02:37;102106.66;;;1.56;100.00
58473;BME280;44775;51.564;5.460;2023-01-31T04:07:30;102109.84;;;1.62;100.00
58473;BME280;44775;51.564;5.460;2023-01-31T04:09:56;102102.09;;;1.59;100.00
58473;BME280;44775;51.564;5.460;2023-01-31T04:12:22;102109.59;;;1.67;100.00
58473;BME280;44775;51.564;5.460;2023-01-31T04:14:47;102107.47;;;1.74;100.00
58473;BME280;44775;51.564;5.460;2023-01-31T04:17:13;102105.63;;;1.76;100.00
58473;BME280;44775;51.564;5.460;2023-01-31T04:19:38;102110.72;;;1.79;100.00
58473;BME280;44775;51.564;5.460;2023-01-31T04:22:03;102101.28;;;1.75;100.00
58473;BME280;44775;51.564;5.460;2023-01-31T04:24:29;102108.00;;;1.80;100.00
58473;BME280;44775;51.564;5.460;2023-01-31T04:26:54;102097.22;;;1.85;100.00
58473;BME280;44775;51.564;5.460;2023-01-31T04:29:20;102103.59;;;1.81;100.00
58473;BME280;44775;51.564;5.460;2023-01-31T04:31:45;102107.91;;;1.82;100.00
58473;BME280;44775;51.564;5.460;2023-01-31T04:34:11;102098.44;;;1.95;100.00
58473;BME280;44775;51.564;5.460;2023-01-31T04:36:37;102088.56;;;1.83;100.00
58473;BME280;44775;51.564;5.460;2023-01-31T04:39:02;102091.41;;;1.78;100.00
58473;BME280;44775;51.564;5.460;2023-01-31T04:41:28;102099.25;;;1.80;100.00
58473;BME280;44775;51.564;5.460;2023-01-31T04:43:53;102100.38;;;1.92;100.00
58473;BME280;44775;51.564;5.460;2023-01-31T04:46:19;102095.78;;;1.79;100.00
58473;BME280;44775;51.564;5.460;2023-01-31T04:48:44;102100.09;;;1.80;100.00
58473;BME280;44775;51.564;5.460;2023-01-31T04:51:10;102089.63;;;1.79;100.00
58473;BME280;44775;51.564;5.460;2023-01-31T04:53:35;102084.56;;;1.76;100.00
58473;BME280;44775;51.564;5.460;2023-01-31T04:56:01;102076.66;;;1.76;100.00
58473;BME280;44775;51.564;5.460;2023-01-31T04:58:27;102075.69;;;1.77;100.00
58473;BME280;44775;51.564;5.460;2023-01-31T05:00:53;102069.66;;;1.75;100.00
58473;BME280;44775;51.564;5.460;2023-01-31T05:03:18;102050.63;;;1.70;100.00
58473;BME280;44775;51.564;5.460;2023-01-31T05:05:47;102062.25;;;1.65;100.00
58473;BME280;44775;51.564;5.460;2023-01-31T05:08:13;102067.09;;;1.73;100.00
58473;BME280;44775;51.564;5.460;2023-01-31T05:10:38;102054.00;;;1.72;100.00
58473;BME280;44775;51.564;5.460;2023-01-31T05:13:04;102059.09;;;1.75;100.00
58473;BME280;44775;51.564;5.460;2023-01-31T05:15:29;102052.16;;;1.74;100.00
58473;BME280;44775;51.564;5.460;2023-01-31T05:17:56;102058.94;;;1.78;100.00
58473;BME280;44775;51.564;5.460;2023-01-31T05:20:32;102051.56;;;1.84;100.00
58473;BME280;44775;51.564;5.460;2023-01-31T05:23:00;102045.75;;;1.78;100.00
58473;BME280;44775;51.564;5.460;2023-01-31T05:25:26;102056.84;;;1.84;100.00
58473;BME280;44775;51.564;5.460;2023-01-31T05:27:52;102048.44;;;1.94;100.00
58473;BME280;44775;51.564;5.460;2023-01-31T05:30:18;102048.59;;;1.91;100.00
58473;BME280;44775;51.564;5.460;2023-01-31T05:32:44;102052.88;;;1.93;100.00
58473;BME280;44775;51.564;5.460;2023-01-31T05:35:11;102052.69;;;1.96;100.00
58473;BME280;44775;51.564;5.460;2023-01-31T05:37:37;102055.50;;;1.93;100.00
58473;BME280;44775;51.564;5.460;2023-01-31T05:40:10;102050.91;;;1.97;100.00
58473;BME280;44775;51.564;5.460;2023-01-31T05:42:36;102027.94;;;1.99;100.00
58473;BME280;44775;51.564;5.460;2023-01-31T05:45:01;102032.63;;;1.94;100.00
58473;BME280;44775;51.564;5.460;2023-01-31T05:47:27;102030.03;;;1.92;100.00
58473;BME280;44775;51.564;5.460;2023-01-31T05:49:53;102036.19;;;1.93;100.00
58473;BME280;44775;51.564;5.460;2023-01-31T05:52:19;102035.16;;;1.95;100.00
58473;BME280;44775;51.564;5.460;2023-01-31T05:54:44;102028.97;;;1.96;100.00
58473;BME280;44775;51.564;5.460;2023-01-31T05:57:09;102026.75;;;2.04;100.00
58473;BME280;44775;51.564;5.460;2023-01-31T05:59:35;102032.34;;;1.98;100.00
58473;BME280;44775;51.564;5.460;2023-01-31T06:02:00;102031.25;;;2.02;100.00
58473;BME280;44775;51.564;5.460;2023-01-31T06:04:26;102041.63;;;2.05;100.00
58473;BME280;44775;51.564;5.460;2023-01-31T06:06:51;102032.97;;;2.03;100.00
58473;BME280;44775;51.564;5.460;2023-01-31T06:09:17;102043.25;;;2.08;100.00
58473;BME280;44775;51.564;5.460;2023-01-31T06:11:42;102040.56;;;2.09;100.00
58473;BME280;44775;51.564;5.460;2023-01-31T06:14:09;102045.47;;;2.16;100.00
58473;BME280;44775;51.564;5.460;2023-01-31T06:16:34;102037.38;;;2.19;100.00
58473;BME280;44775;51.564;5.460;2023-01-31T06:18:59;102034.00;;;2.17;100.00
58473;BME280;44775;51.564;5.460;2023-01-31T06:21:28;102037.38;;;2.19;100.00
58473;BME280;44775;51.564;5.460;2023-01-31T06:23:53;102032.09;;;2.19;100.00
58473;BME280;44775;51.564;5.460;2023-01-31T06:26:19;102036.38;;;2.21;100.00
58473;BME280;44775;51.564;5.460;2023-01-31T06:28:44;102036.38;;;2.37;100.00
58473;BME280;44775;51.564;5.460;2023-01-31T06:31:11;102026.50;;;2.25;100.00
58473;BME280;44775;51.564;5.460;2023-01-31T06:33:37;102032.28;;;2.31;100.00
58473;BME280;44775;51.564;5.460;2023-01-31T06:36:03;102035.59;;;2.35;100.00
58473;BME280;44775;51.564;5.460;2023-01-31T06:38:28;102026.31;;;2.28;100.00
58473;BME280;44775;51.564;5.460;2023-01-31T06:40:54;102022.56;;;2.32;100.00
58473;BME280;44775;51.564;5.460;2023-01-31T06:43:20;102015.00;;;2.26;100.00
58473;BME280;44775;51.564;5.460;2023-01-31T06:45:45;102009.47;;;2.30;100.00
58473;BME280;44775;51.564;5.460;2023-01-31T06:48:11;102007.75;;;2.29;100.00
58473;BME280;44775;51.564;5.460;2023-01-31T06:50:36;101998.75;;;2.33;100.00
58473;BME280;44775;51.564;5.460;2023-01-31T06:53:02;102004.94;;;2.32;100.00
58473;BME280;44775;51.564;5.460;2023-01-31T06:55:28;102008.25;;;2.36;100.00
58473;BME280;44775;51.564;5.460;2023-01-31T06:57:53;102012.97;;;2.47;100.00
58473;BME280;44775;51.564;5.460;2023-01-31T07:00:20;102011.41;;;2.43;100.00
58473;BME280;44775;51.564;5.460;2023-01-31T07:02:46;102010.16;;;2.50;100.00
58473;BME280;44775;51.564;5.460;2023-01-31T07:05:13;102013.34;;;2.55;100.00
58473;BME280;44775;51.564;5.460;2023-01-31T07:07:38;102005.88;;;2.47;100.00
58473;BME280;44775;51.564;5.460;2023-01-31T07:10:04;102003.75;;;2.54;100.00
58473;BME280;44775;51.564;5.460;2023-01-31T07:12:30;101997.25;;;2.59;100.00
58473;BME280;44775;51.564;5.460;2023-01-31T07:14:55;101994.19;;;2.67;100.00
58473;BME280;44775;51.564;5.460;2023-01-31T07:17:20;102005.41;;;2.71;100.00
58473;BME280;44775;51.564;5.460;2023-01-31T07:19:46;102003.44;;;2.74;100.00
58473;BME280;44775;51.564;5.460;2023-01-31T07:22:12;101993.94;;;2.86;100.00
58473;BME280;44775;51.564;5.460;2023-01-31T07:24:37;102001.28;;;2.81;100.00
58473;BME280;44775;51.564;5.460;2023-01-31T07:27:03;101999.22;;;2.86;100.00
58473;BME280;44775;51.564;5.460;2023-01-31T07:29:28;101976.50;;;2.83;100.00
58473;BME280;44775;51.564;5.460;2023-01-31T07:31:54;102000.72;;;2.90;100.00
58473;BME280;44775;51.564;5.460;2023-01-31T07:34:19;101994.66;;;3.04;100.00
58473;BME280;44775;51.564;5.460;2023-01-31T07:36:48;101995.31;;;3.07;100.00
58473;BME280;44775;51.564;5.460;2023-01-31T07:39:13;101987.09;;;2.98;100.00
58473;BME280;44775;51.564;5.460;2023-01-31T07:41:38;102001.53;;;3.06;100.00
58473;BME280;44775;51.564;5.460;2023-01-31T07:44:04;101988.34;;;3.21;100.00
58473;BME280;44775;51.564;5.460;2023-01-31T07:46:35;101988.13;;;3.10;100.00
58473;BME280;44775;51.564;5.460;2023-01-31T07:49:01;101991.38;;;3.15;100.00
58473;BME280;44775;51.564;5.460;2023-01-31T07:51:27;101969.88;;;3.21;100.00
58473;BME280;44775;51.564;5.460;2023-01-31T07:53:52;101973.44;;;3.20;100.00
58473;BME280;44775;51.564;5.460;2023-01-31T07:56:19;101958.72;;;3.30;100.00
58473;BME280;44775;51.564;5.460;2023-01-31T07:58:46;101962.19;;;3.30;100.00
58473;BME280;44775;51.564;5.460;2023-01-31T08:01:20;101964.59;;;3.35;100.00
58473;BME280;44775;51.564;5.460;2023-01-31T08:04:05;101964.00;;;3.30;100.00
58473;BME280;44775;51.564;5.460;2023-01-31T08:06:31;101953.34;;;3.31;100.00
58473;BME280;44775;51.564;5.460;2023-01-31T08:08:57;101957.13;;;3.42;100.00
58473;BME280;44775;51.564;5.460;2023-01-31T08:11:24;101958.16;;;3.39;100.00
58473;BME280;44775;51.564;5.460;2023-01-31T08:13:49;101954.84;;;3.50;100.00
58473;BME280;44775;51.564;5.460;2023-01-31T08:16:15;101954.00;;;3.49;100.00
58473;BME280;44775;51.564;5.460;2023-01-31T08:18:41;101959.19;;;3.51;100.00
58473;BME280;44775;51.564;5.460;2023-01-31T08:21:07;101962.22;;;3.59;100.00
58473;BME280;44775;51.564;5.460;2023-01-31T08:23:33;101955.13;;;3.60;100.00
58473;BME280;44775;51.564;5.460;2023-01-31T08:26:16;101961.22;;;3.74;100.00
58473;BME280;44775;51.564;5.460;2023-01-31T08:28:43;101952.44;;;3.74;100.00
58473;BME280;44775;51.564;5.460;2023-01-31T08:31:20;101957.16;;;3.83;100.00
58473;BME280;44775;51.564;5.460;2023-01-31T08:33:46;101937.69;;;3.84;100.00
58473;BME280;44775;51.564;5.460;2023-01-31T08:36:23;101942.50;;;3.92;100.00
58473;BME280;44775;51.564;5.460;2023-01-31T08:38:49;101948.44;;;3.95;100.00
58473;BME280;44775;51.564;5.460;2023-01-31T08:41:16;101929.44;;;4.03;100.00
58473;BME280;44775;51.564;5.460;2023-01-31T08:43:43;101940.00;;;4.03;100.00
58473;BME280;44775;51.564;5.460;2023-01-31T08:46:08;101933.81;;;4.17;100.00
58473;BME280;44775;51.564;5.460;2023-01-31T08:48:35;101932.13;;;4.16;100.00
58473;BME280;44775;51.564;5.460;2023-01-31T08:51:06;101934.03;;;4.14;100.00
58473;BME280;44775;51.564;5.460;2023-01-31T08:53:33;101922.72;;;4.12;100.00
58473;BME280;44775;51.564;5.460;2023-01-31T08:56:01;101910.78;;;4.19;100.00
58473;BME280;44775;51.564;5.460;2023-01-31T08:58:29;101913.00;;;4.25;100.00
58473;BME280;44775;51.564;5.460;2023-01-31T09:01:02;101912.31;;;4.36;100.00
58473;BME280;44775;51.564;5.460;2023-01-31T09:03:28;101912.19;;;4.37;100.00
58473;BME280;44775;51.564;5.460;2023-01-31T09:05:53;101902.34;;;4.39;100.00
58473;BME280;44775;51.564;5.460;2023-01-31T09:08:19;101914.94;;;4.48;100.00
58473;BME280;44775;51.564;5.460;2023-01-31T09:10:53;101907.31;;;4.44;100.00
58473;BME280;44775;51.564;5.460;2023-01-31T09:13:19;101899.38;;;4.44;100.00
58473;BME280;44775;51.564;5.460;2023-01-31T09:15:45;101914.94;;;4.48;100.00
58473;BME280;44775;51.564;5.460;2023-01-31T09:18:10;101910.63;;;4.47;100.00
58473;BME280;44775;51.564;5.460;2023-01-31T09:20:36;101905.97;;;4.51;100.00
58473;BME280;44775;51.564;5.460;2023-01-31T09:23:02;101909.38;;;4.53;100.00
58473;BME280;44775;51.564;5.460;2023-01-31T09:25:28;101892.00;;;4.62;100.00
58473;BME280;44775;51.564;5.460;2023-01-31T09:27:53;101875.06;;;4.77;100.00
58473;BME280;44775;51.564;5.460;2023-01-31T09:30:19;101881.22;;;4.90;100.00
58473;BME280;44775;51.564;5.460;2023-01-31T09:32:45;101878.78;;;5.00;100.00
58473;BME280;44775;51.564;5.460;2023-01-31T09:35:11;101898.16;;;5.13;100.00
58473;BME280;44775;51.564;5.460;2023-01-31T09:37:37;101890.00;;;5.16;100.00
58473;BME280;44775;51.564;5.460;2023-01-31T09:40:05;101895.25;;;5.29;100.00
58473;BME280;44775;51.564;5.460;2023-01-31T09:42:37;101896.41;;;5.38;100.00
58473;BME280;44775;51.564;5.460;2023-01-31T09:45:12;101894.19;;;5.44;100.00
58473;BME280;44775;51.564;5.460;2023-01-31T09:47:43;101895.09;;;5.56;100.00
58473;BME280;44775;51.564;5.460;2023-01-31T09:52:56;101899.25;;;5.84;100.00
58473;BME280;44775;51.564;5.460;2023-01-31T09:55:50;101907.09;;;5.99;100.00
58473;BME280;44775;51.564;5.460;2023-01-31T10:01:09;101902.63;;;5.99;100.00
58473;BME280;44775;51.564;5.460;2023-01-31T10:03:39;101900.88;;;6.11;100.00
58473;BME280;44775;51.564;5.460;2023-01-31T10:06:19;101899.38;;;6.07;100.00
58473;BME280;44775;51.564;5.460;2023-01-31T10:08:52;101881.16;;;6.02;100.00
58473;BME280;44775;51.564;5.460;2023-01-31T10:14:03;101887.75;;;5.97;100.00
58473;BME280;44775;51.564;5.460;2023-01-31T10:16:41;101874.72;;;6.18;100.00
58473;BME280;44775;51.564;5.460;2023-01-31T10:19:25;101872.84;;;6.07;100.00
58473;BME280;44775;51.564;5.460;2023-01-31T10:22:01;101865.41;;;5.88;100.00
58473;BME280;44775;51.564;5.460;2023-01-31T10:24:42;101871.41;;;5.90;100.00
58473;BME280;44775;51.564;5.460;2023-01-31T10:27:17;101874.41;;;5.85;100.00
58473;BME280;44775;51.564;5.460;2023-01-31T10:29:50;101886.44;;;5.78;100.00
58473;BME280;44775;51.564;5.460;2023-01-31T10:32:23;101885.25;;;5.82;100.00
58473;BME280;44775;51.564;5.460;2023-01-31T10:35:00;101888.44;;;5.87;100.00
58473;BME280;44775;51.564;5.460;2023-01-31T10:37:46;101894.41;;;5.78;100.00
58473;BME280;44775;51.564;5.460;2023-01-31T10:40:18;101892.88;;;5.87;100.00
58473;BME280;44775;51.564;5.460;2023-01-31T10:42:52;101889.16;;;5.89;100.00
58473;BME280;44775;51.564;5.460;2023-01-31T10:45:24;101872.06;;;5.94;100.00
58473;BME280;44775;51.564;5.460;2023-01-31T10:48:16;101886.81;;;5.98;100.00
58473;BME280;44775;51.564;5.460;2023-01-31T10:51:07;101876.59;;;6.04;100.00
58473;BME280;44775;51.564;5.460;2023-01-31T10:56:17;101862.97;;;6.09;100.00
58473;BME280;44775;51.564;5.460;2023-01-31T10:58:48;101858.34;;;6.00;100.00
58473;BME280;44775;51.564;5.460;2023-01-31T11:01:14;101875.25;;;5.99;100.00
58473;BME280;44775;51.564;5.460;2023-01-31T11:03:47;101870.72;;;6.12;100.00
58473;BME280;44775;51.564;5.460;2023-01-31T11:06:14;101864.91;;;6.07;100.00
58473;BME280;44775;51.564;5.460;2023-01-31T11:08:46;101858.75;;;6.42;100.00
58473;BME280;44775;51.564;5.460;2023-01-31T11:11:15;101852.19;;;6.34;100.00
58473;BME280;44775;51.564;5.460;2023-01-31T11:13:55;101850.88;;;6.29;100.00
58473;BME280;44775;51.564;5.460;2023-01-31T11:16:22;101846.41;;;6.29;100.00
58473;BME280;44775;51.564;5.460;2023-01-31T11:18:49;101845.09;;;6.35;100.00
58473;BME280;44775;51.564;5.460;2023-01-31T11:21:24;101835.72;;;6.42;100.00
58473;BME280;44775;51.564;5.460;2023-01-31T11:23:51;101833.06;;;6.53;100.00
58473;BME280;44775;51.564;5.460;2023-01-31T11:26:34;101822.09;;;6.69;100.00
58473;BME280;44775;51.564;5.460;2023-01-31T11:29:01;101811.94;;;6.63;100.00
58473;BME280;44775;51.564;5.460;2023-01-31T11:31:35;101817.03;;;6.66;100.00
58473;BME280;44775;51.564;5.460;2023-01-31T11:34:04;101824.25;;;6.64;100.00
58473;BME280;44775;51.564;5.460;2023-01-31T11:36:43;101822.56;;;6.63;100.00
58473;BME280;44775;51.564;5.460;2023-01-31T11:41:47;101835.72;;;6.65;100.00
58473;BME280;44775;51.564;5.460;2023-01-31T11:44:14;101823.28;;;6.54;100.00
58473;BME280;44775;51.564;5.460;2023-01-31T11:49:13;101812.69;;;6.65;100.00
58473;BME280;44775;51.564;5.460;2023-01-31T11:51:39;101813.88;;;6.61;100.00
58473;BME280;44775;51.564;5.460;2023-01-31T11:54:05;101815.06;;;6.57;100.00
58473;BME280;44775;51.564;5.460;2023-01-31T11:56:34;101808.19;;;6.54;100.00
58473;BME280;44775;51.564;5.460;2023-01-31T11:59:02;101812.78;;;6.52;100.00
58473;BME280;44775;51.564;5.460;2023-01-31T12:01:33;101810.63;;;6.69;100.00
58473;BME280;44775;51.564;5.460;2023-01-31T12:04:04;101812.19;;;6.60;100.00
58473;BME280;44775;51.564;5.460;2023-01-31T12:06:39;101810.75;;;6.56;100.00
58473;BME280;44775;51.564;5.460;2023-01-31T12:09:23;101800.34;;;6.53;100.00
58473;BME280;44775;51.564;5.460;2023-01-31T12:11:57;101803.97;;;6.52;100.00
58473;BME280;44775;51.564;5.460;2023-01-31T12:14:25;101812.28;;;6.36;100.00
58473;BME280;44775;51.564;5.460;2023-01-31T12:17:00;101809.63;;;6.36;100.00
58473;BME280;44775;51.564;5.460;2023-01-31T12:23:01;101802.72;;;6.22;100.00
58473;BME280;44775;51.564;5.460;2023-01-31T12:25:47;101804.78;;;6.30;100.00
58473;BME280;44775;51.564;5.460;2023-01-31T12:28:44;101803.16;;;6.16;100.00
58473;BME280;44775;51.564;5.460;2023-01-31T12:34:03;101794.97;;;6.19;100.00
58473;BME280;44775;51.564;5.460;2023-01-31T12:37:01;101795.34;;;6.14;100.00
58473;BME280;44775;51.564;5.460;2023-01-31T12:42:48;101788.38;;;6.36;100.00
58473;BME280;44775;51.564;5.460;2023-01-31T12:49:01;101792.78;;;6.13;100.00
58473;BME280;44775;51.564;5.460;2023-01-31T12:51:20;101792.19;;;6.09;100.00
58473;BME280;44775;51.564;5.460;2023-01-31T12:56:51;101794.84;;;6.09;100.00
58473;BME280;44775;51.564;5.460;2023-01-31T13:04:54;101781.56;;;6.09;100.00
58473;BME280;44775;51.564;5.460;2023-01-31T13:07:31;101776.03;;;6.12;100.00
58473;BME280;44775;51.564;5.460;2023-01-31T13:10:01;101774.22;;;6.13;100.00
58473;BME280;44775;51.564;5.460;2023-01-31T13:12:31;101773.97;;;6.16;100.00
58473;BME280;44775;51.564;5.460;2023-01-31T13:15:06;101767.00;;;6.26;100.00
58473;BME280;44775;51.564;5.460;2023-01-31T13:17:38;101774.88;;;6.28;100.00
58473;BME280;44775;51.564;5.460;2023-01-31T13:22:48;101781.94;;;6.16;100.00
58473;BME280;44775;51.564;5.460;2023-01-31T13:25:28;101774.97;;;6.26;100.00
58473;BME280;44775;51.564;5.460;2023-01-31T13:27:59;101774.50;;;6.21;100.00
58473;BME280;44775;51.564;5.460;2023-01-31T13:30:41;101768.91;;;6.24;100.00
58473;BME280;44775;51.564;5.460;2023-01-31T13:35:44;101767.97;;;6.36;100.00
58473;BME280;44775;51.564;5.460;2023-01-31T13:38:17;101774.38;;;6.34;100.00
58473;BME280;44775;51.564;5.460;2023-01-31T13:40:52;101758.56;;;6.32;100.00
58473;BME280;44775;51.564;5.460;2023-01-31T13:43:19;101763.19;;;6.42;100.00
58473;BME280;44775;51.564;5.460;2023-01-31T13:46:00;101760.16;;;6.35;100.00
58473;BME280;44775;51.564;5.460;2023-01-31T13:48:32;101763.88;;;6.32;100.00
58473;BME280;44775;51.564;5.460;2023-01-31T13:53:57;101758.09;;;6.50;100.00
58473;BME280;44775;51.564;5.460;2023-01-31T13:56:28;101769.47;;;6.63;100.00
58473;BME280;44775;51.564;5.460;2023-01-31T13:58:55;101754.59;;;6.60;100.00
58473;BME280;44775;51.564;5.460;2023-01-31T14:01:25;101758.22;;;6.71;100.00
58473;BME280;44775;51.564;5.460;2023-01-31T14:09:32;101774.53;;;6.89;100.00
58473;BME280;44775;51.564;5.460;2023-01-31T14:12:01;101762.44;;;6.84;100.00
58473;BME280;44775;51.564;5.460;2023-01-31T14:14:50;101771.38;;;6.95;100.00
58473;BME280;44775;51.564;5.460;2023-01-31T14:22:19;101777.53;;;7.06;100.00
58473;BME280;44775;51.564;5.460;2023-01-31T14:35:32;101796.34;;;7.26;100.00
58473;BME280;44775;51.564;5.460;2023-01-31T14:58:34;101836.34;;;7.13;100.00